Ceyhan, Turkey
Current Conditions -  °F | °C
As of 12:50 PM on Saturday 27 Dec 2014 (Local Time) from LTAG Reporting Station
Broken Clouds Broken Clouds  
Wind Chill: 61°   Ceiling: 10000
Heat Index: 61°   Visibility: 6mi
Dew Point: 41°   Wind: 12mph
Humidity: 48%   Direction: 50°NE
Pressure: 30"   Gusts: NA
Location:  37.04°N, 35.82°E
Report Text: LTAG 270950Z 05010KT 9999 SCT035 BKN100 16/05 Q1016 NOSIG
Loading
Personal Weather Stations






























Interactive Weather Map New forecast layout! Learn more

10-Day Weather Forecast

Advertisements
Track Severe Weather on mobile